Time;durP1;ratioP1;P1;durP2;ratioP2;P2;SDS_P1;SDS_P2;PMS_P1;PMS_P2;Temp;Humidity;BMP_temperature;BMP_pressure;BME280_temperature;BME280_humidity;BME280_pressure;Samples;Min_cycle;Max_cycle;Signal;HPM_P1;HPM_P2
2021/11/30 00:00:48;;;;;;;;;;;;;;;3.21;100.00;100935.16;5084630;28;19925;-55
2021/11/30 00:03:15;;;;;;;;;;;;;;;3.20;100.00;100934.31;5055156;28;19933;-54
2021/11/30 00:05:43;;;;;;;;;;;;;;;3.28;100.00;100935.78;5055316;28;19929;-51
2021/11/30 00:08:11;;;;;;;;;;;;;;;3.25;100.00;100935.91;5052331;28;20530;-54
2021/11/30 00:10:44;;;;;;;;;;;;;;;3.31;100.00;100923.56;5050957;28;20379;-54
2021/11/30 00:13:29;;;;;;;;;;;;;;;3.27;100.00;100910.69;5052562;28;20427;-51
2021/11/30 00:15:56;;;;;;;;;;;;;;;3.34;100.00;100906.97;5083725;28;19924;-51
2021/11/30 00:18:24;;;;;;;;;;;;;;;3.27;100.00;100893.31;5067079;28;20409;-54
2021/11/30 00:20:51;;;;;;;;;;;;;;;3.29;100.00;100896.75;5087139;28;19935;-55
2021/11/30 00:23:18;;;;;;;;;;;;;;;3.30;100.00;100898.44;5054299;28;20327;-55
2021/11/30 00:25:44;;;;;;;;;;;;;;;3.29;100.00;100901.09;5052093;28;19928;-55
2021/11/30 00:28:11;;;;;;;;;;;;;;;3.30;100.00;100892.38;5051784;28;19929;-55
2021/11/30 00:30:38;;;;;;;;;;;;;;;3.28;100.00;100886.41;5050895;28;19925;-50
2021/11/30 00:33:05;;;;;;;;;;;;;;;3.32;100.00;100880.19;5050538;28;19932;-48
2021/11/30 00:35:32;;;;;;;;;;;;;;;3.27;100.00;100876.91;5084540;28;19936;-52
2021/11/30 00:37:59;;;;;;;;;;;;;;;3.33;100.00;100868.91;5054498;28;19925;-53
2021/11/30 00:40:26;;;;;;;;;;;;;;;3.36;100.00;100871.38;5054902;28;19990;-50
2021/11/30 00:42:55;;;;;;;;;;;;;;;3.33;100.00;100861.09;5054643;28;19991;-54
2021/11/30 00:45:23;;;;;;;;;;;;;;;3.36;100.00;100859.22;5054629;28;19928;-54
2021/11/30 00:47:53;;;;;;;;;;;;;;;3.31;100.00;100852.50;5054460;28;19929;-53
2021/11/30 00:50:20;;;;;;;;;;;;;;;3.31;100.00;100847.28;5054311;28;20307;-55
2021/11/30 00:52:47;;;;;;;;;;;;;;;3.36;100.00;100842.78;5052237;28;19990;-56
2021/11/30 00:55:14;;;;;;;;;;;;;;;3.33;100.00;100838.53;5051888;28;20345;-55
2021/11/30 00:57:41;;;;;;;;;;;;;;;3.38;100.00;100822.75;5049676;28;19928;-55
2021/11/30 01:00:09;;;;;;;;;;;;;;;3.36;100.00;100820.22;5052965;28;19932;-47
2021/11/30 01:02:36;;;;;;;;;;;;;;;3.32;100.00;100817.81;5086157;28;20362;-53
2021/11/30 01:05:04;;;;;;;;;;;;;;;3.29;100.00;100813.56;5053079;28;19925;-51
2021/11/30 01:07:33;;;;;;;;;;;;;;;3.32;100.00;100812.59;5050915;28;19979;-54
2021/11/30 01:09:59;;;;;;;;;;;;;;;3.30;100.00;100823.06;5053050;28;20077;-50
2021/11/30 01:12:26;;;;;;;;;;;;;;;3.34;100.00;100828.97;5050668;28;19929;-55
2021/11/30 01:14:52;;;;;;;;;;;;;;;3.32;100.00;100828.19;5051057;28;19925;-55
2021/11/30 01:17:19;;;;;;;;;;;;;;;3.30;99.59;100825.66;5050469;28;19995;-55
2021/11/30 01:19:46;;;;;;;;;;;;;;;3.29;99.20;100829.16;5052152;28;19959;-55
2021/11/30 01:22:12;;;;;;;;;;;;;;;3.32;99.27;100833.41;5054069;28;19995;-53
2021/11/30 01:24:39;;;;;;;;;;;;;;;3.29;98.99;100838.72;5052007;28;19935;-56
2021/11/30 01:27:06;;;;;;;;;;;;;;;3.32;98.83;100828.19;5050775;28;19994;-55
2021/11/30 01:29:32;;;;;;;;;;;;;;;3.31;99.17;100831.69;5082504;28;20372;-53
2021/11/30 01:31:59;;;;;;;;;;;;;;;3.35;98.34;100817.69;5050365;28;20036;-53
2021/11/30 01:34:25;;;;;;;;;;;;;;;3.26;98.04;100821.47;5050671;28;19983;-55
2021/11/30 01:36:53;;;;;;;;;;;;;;;3.30;98.35;100809.19;5050756;28;19948;-54
2021/11/30 01:39:21;;;;;;;;;;;;;;;3.22;98.76;100810.31;5051018;28;19947;-55
2021/11/30 01:41:48;;;;;;;;;;;;;;;3.25;100.00;100803.34;5048114;28;19943;-55
2021/11/30 01:44:29;;;;;;;;;;;;;;;3.19;100.00;100802.63;5065768;28;19964;-55
2021/11/30 01:49:34;;;;;;;;;;;;;;;3.13;100.00;100781.22;5052128;28;19929;-51
2021/11/30 01:52:02;;;;;;;;;;;;;;;3.10;100.00;100781.31;5049011;28;19936;-51
2021/11/30 01:54:29;;;;;;;;;;;;;;;3.07;100.00;100769.28;5050458;28;19925;-53
2021/11/30 01:56:56;;;;;;;;;;;;;;;3.05;100.00;100765.88;5050545;28;19975;-57
2021/11/30 01:59:23;;;;;;;;;;;;;;;3.04;100.00;100756.38;5081724;28;19929;-48
2021/11/30 02:01:50;;;;;;;;;;;;;;;2.99;100.00;100758.31;5050310;28;19931;-50
2021/11/30 02:04:17;;;;;;;;;;;;;;;2.89;100.00;100747.41;5081864;28;19960;-54
2021/11/30 02:06:44;;;;;;;;;;;;;;;2.83;100.00;100743.22;5083958;28;19928;-51
2021/11/30 02:09:10;;;;;;;;;;;;;;;2.74;100.00;100745.31;5052693;28;20443;-55
2021/11/30 02:11:37;;;;;;;;;;;;;;;2.67;100.00;100735.13;5051970;28;19975;-53
2021/11/30 02:14:04;;;;;;;;;;;;;;;2.67;100.00;100729.94;5048365;28;19929;-53
2021/11/30 02:16:30;;;;;;;;;;;;;;;2.62;100.00;100728.38;5049350;28;20383;-48
2021/11/30 02:19:00;;;;;;;;;;;;;;;2.58;100.00;100731.97;5051435;28;19925;-47
2021/11/30 02:21:34;;;;;;;;;;;;;;;2.54;100.00;100732.09;5050349;28;19924;-51
2021/11/30 02:24:01;;;;;;;;;;;;;;;2.59;100.00;100720.69;5081758;28;19978;-52
2021/11/30 02:26:28;;;;;;;;;;;;;;;2.58;100.00;100717.25;5052816;28;19931;-53
2021/11/30 02:28:58;;;;;;;;;;;;;;;2.56;100.00;100700.03;5082749;28;19963;-53
2021/11/30 02:31:26;;;;;;;;;;;;;;;2.52;100.00;100691.50;5049849;28;19929;-54
2021/11/30 02:33:52;;;;;;;;;;;;;;;2.52;100.00;100697.56;5049599;28;20410;-47
2021/11/30 02:36:32;;;;;;;;;;;;;;;2.55;100.00;100686.22;5048458;28;19951;-48
2021/11/30 02:39:00;;;;;;;;;;;;;;;2.56;100.00;100681.88;5050274;28;19925;-50
2021/11/30 02:41:27;;;;;;;;;;;;;;;2.52;100.00;100673.31;5082185;28;20271;-54
2021/11/30 02:43:54;;;;;;;;;;;;;;;2.54;100.00;100664.59;5081519;28;19932;-53
2021/11/30 02:46:30;;;;;;;;;;;;;;;2.58;100.00;100670.53;5049892;28;19948;-55
2021/11/30 02:48:57;;;;;;;;;;;;;;;2.57;100.00;100663.63;5052067;28;19928;-54
2021/11/30 02:51:25;;;;;;;;;;;;;;;2.67;100.00;100666.75;5049798;28;19925;-54
2021/11/30 02:53:53;;;;;;;;;;;;;;;2.60;100.00;100663.50;5054214;28;19929;-48
2021/11/30 02:56:20;;;;;;;;;;;;;;;2.58;100.00;100665.34;5053819;28;19971;-48
2021/11/30 02:58:47;;;;;;;;;;;;;;;2.64;100.00;100661.66;5053332;28;19932;-51
2021/11/30 03:01:15;;;;;;;;;;;;;;;2.62;100.00;100653.06;5052083;28;19928;-50
2021/11/30 03:03:42;;;;;;;;;;;;;;;2.65;100.00;100637.41;5053290;28;19925;-50
2021/11/30 03:06:08;;;;;;;;;;;;;;;2.59;100.00;100633.28;5055188;28;19979;-50
2021/11/30 03:08:38;;;;;;;;;;;;;;;2.53;100.00;100626.53;5054765;28;19925;-51
2021/11/30 03:11:06;;;;;;;;;;;;;;;2.64;100.00;100617.53;5053266;28;19951;-50
2021/11/30 03:13:33;;;;;;;;;;;;;;;2.60;100.00;100614.19;5053502;28;19925;-52
2021/11/30 03:15:59;;;;;;;;;;;;;;;2.64;100.00;100612.34;5052785;28;19979;-53
2021/11/30 03:18:26;;;;;;;;;;;;;;;2.68;100.00;100611.31;5084727;28;20276;-51
2021/11/30 03:20:53;;;;;;;;;;;;;;;2.67;100.00;100607.88;5054900;28;19929;-52
2021/11/30 03:23:19;;;;;;;;;;;;;;;2.67;100.00;100607.88;5056337;28;19928;-53
2021/11/30 03:25:46;;;;;;;;;;;;;;;2.67;100.00;100602.69;5052565;28;19929;-51
2021/11/30 03:28:13;;;;;;;;;;;;;;;2.70;100.00;100597.38;5053210;28;19982;-47
2021/11/30 03:30:52;;;;;;;;;;;;;;;2.74;100.00;100589.47;5051985;28;19947;-47
2021/11/30 03:36:04;;;;;;;;;;;;;;;2.75;100.00;100579.03;5053204;28;19925;-56
2021/11/30 03:38:30;;;;;;;;;;;;;;;2.80;100.00;100571.91;5055352;28;19925;-53
2021/11/30 03:40:57;;;;;;;;;;;;;;;2.82;100.00;100574.44;5056010;28;20446;-56
2021/11/30 03:43:24;;;;;;;;;;;;;;;2.83;100.00;100566.59;5053325;28;19925;-54
2021/11/30 03:45:50;;;;;;;;;;;;;;;2.83;100.00;100569.19;5050717;28;19974;-48
2021/11/30 03:48:17;;;;;;;;;;;;;;;2.92;100.00;100559.34;5054408;28;19956;-48
2021/11/30 03:50:44;;;;;;;;;;;;;;;2.90;100.00;100562.03;5055833;28;20599;-46
2021/11/30 03:53:11;;;;;;;;;;;;;;;2.94;100.00;100547.16;5053149;28;19982;-55
2021/11/30 03:55:37;;;;;;;;;;;;;;;2.92;100.00;100544.63;5068025;28;20296;-55
2021/11/30 03:58:04;;;;;;;;;;;;;;;2.93;100.00;100542.88;5055126;28;20441;-52
2021/11/30 04:00:31;;;;;;;;;;;;;;;2.95;100.00;100544.50;5083555;28;19925;-53
2021/11/30 04:02:57;;;;;;;;;;;;;;;3.01;100.00;100540.81;5054092;28;19925;-54
2021/11/30 04:05:24;;;;;;;;;;;;;;;3.01;100.00;100540.81;5055078;28;19924;-54
2021/11/30 04:07:51;;;;;;;;;;;;;;;3.08;100.00;100533.66;5055301;28;19925;-49
2021/11/30 04:10:17;;;;;;;;;;;;;;;3.12;100.00;100524.81;5052640;28;20398;-51
2021/11/30 04:12:44;;;;;;;;;;;;;;;3.09;100.00;100530.16;5052983;28;19979;-54
2021/11/30 04:15:11;;;;;;;;;;;;;;;3.14;100.00;100528.22;5055160;28;19925;-55
2021/11/30 04:17:40;;;;;;;;;;;;;;;3.19;100.00;100534.94;5087421;28;19924;-47
2021/11/30 04:20:08;;;;;;;;;;;;;;;3.21;100.00;100525.31;5068080;28;19951;-57
2021/11/30 04:22:34;;;;;;;;;;;;;;;3.26;100.00;100514.75;5084232;28;20375;-58
2021/11/30 04:25:02;;;;;;;;;;;;;;;3.27;100.00;100503.41;5054565;28;19925;-57
2021/11/30 04:27:30;;;;;;;;;;;;;;;3.37;100.00;100504.75;5051843;28;19925;-48
2021/11/30 04:29:57;;;;;;;;;;;;;;;3.41;100.00;100500.28;5051998;28;20042;-49
2021/11/30 04:32:24;;;;;;;;;;;;;;;3.43;100.00;100506.25;5051547;28;19983;-49
2021/11/30 04:34:51;;;;;;;;;;;;;;;3.45;100.00;100493.19;5050721;28;19925;-50
2021/11/30 04:37:18;;;;;;;;;;;;;;;3.55;100.00;100497.09;5054130;28;19929;-49
2021/11/30 04:39:44;;;;;;;;;;;;;;;3.60;100.00;100496.91;5051934;28;19998;-45
2021/11/30 04:42:11;;;;;;;;;;;;;;;3.61;100.00;100490.81;5085067;28;20391;-47
2021/11/30 04:44:39;;;;;;;;;;;;;;;3.66;100.00;100487.09;5055015;28;20356;-49
2021/11/30 04:47:08;;;;;;;;;;;;;;;3.69;100.00;100483.53;5054688;28;20402;-46
2021/11/30 04:52:03;;;;;;;;;;;;;;;3.81;100.00;100472.59;5051814;28;20396;-52
2021/11/30 04:54:30;;;;;;;;;;;;;;;3.84;100.00;100467.25;5050921;28;19928;-56
2021/11/30 04:56:56;;;;;;;;;;;;;;;3.96;100.00;100470.25;5054561;28;19958;-54
2021/11/30 04:59:23;;;;;;;;;;;;;;;4.00;100.00;100458.81;5054271;28;19936;-55
2021/11/30 05:01:50;;;;;;;;;;;;;;;4.12;100.00;100460.00;5054624;28;19979;-55
2021/11/30 05:04:17;;;;;;;;;;;;;;;4.14;100.00;100433.00;5086279;28;19924;-56
2021/11/30 05:06:44;;;;;;;;;;;;;;;4.24;100.00;100438.66;5054193;28;19925;-53
2021/11/30 05:09:11;;;;;;;;;;;;;;;4.27;100.00;100437.66;5054263;28;19928;-51
2021/11/30 05:11:38;;;;;;;;;;;;;;;4.37;100.00;100438.94;5086239;28;19925;-48
2021/11/30 05:14:05;;;;;;;;;;;;;;;4.40;100.00;100444.84;5054039;28;19968;-53
2021/11/30 05:16:31;;;;;;;;;;;;;;;4.43;100.00;100429.97;5052713;28;19929;-53
2021/11/30 05:18:59;;;;;;;;;;;;;;;4.49;100.00;100435.75;5053895;28;19931;-47
2021/11/30 05:21:26;;;;;;;;;;;;;;;4.56;100.00;100437.16;5049527;28;19925;-51
2021/11/30 05:23:59;;;;;;;;;;;;;;;4.64;100.00;100443.78;5051093;28;19924;-49
2021/11/30 05:26:26;;;;;;;;;;;;;;;4.66;100.00;100439.34;5051419;28;19929;-48
2021/11/30 05:28:53;;;;;;;;;;;;;;;4.69;100.00;100441.78;5082713;28;20387;-54
2021/11/30 05:31:20;;;;;;;;;;;;;;;4.68;100.00;100445.34;5050329;28;20417;-52
2021/11/30 05:33:47;;;;;;;;;;;;;;;4.77;100.00;100442.28;5050220;28;19932;-55
2021/11/30 05:36:16;;;;;;;;;;;;;;;4.82;100.00;100440.28;5050808;28;19924;-49
2021/11/30 05:38:43;;;;;;;;;;;;;;;4.88;100.00;100437.41;5050772;28;20434;-56
2021/11/30 05:41:10;;;;;;;;;;;;;;;4.90;100.00;100432.13;5050841;28;19933;-55
2021/11/30 05:43:36;;;;;;;;;;;;;;;4.95;100.00;100429.28;5082891;28;19974;-48
2021/11/30 05:46:03;;;;;;;;;;;;;;;4.99;100.00;100428.22;5085081;28;20342;-50
2021/11/30 05:48:30;;;;;;;;;;;;;;;5.01;100.00;100429.00;5049975;28;19933;-52
2021/11/30 05:50:57;;;;;;;;;;;;;;;5.03;100.00;100434.97;5052126;28;19925;-50
2021/11/30 05:53:24;;;;;;;;;;;;;;;5.13;100.00;100444.03;5053569;28;19967;-49
2021/11/30 05:55:55;;;;;;;;;;;;;;;5.12;100.00;100429.31;5052085;28;19970;-48
2021/11/30 05:58:22;;;;;;;;;;;;;;;5.22;100.00;100433.16;5053350;28;19931;-50
2021/11/30 06:00:49;;;;;;;;;;;;;;;5.21;100.00;100439.28;5052030;28;19924;-47
2021/11/30 06:03:45;;;;;;;;;;;;;;;5.23;100.00;100449.66;5053255;28;19931;-49
2021/11/30 06:06:05;;;;;;;;;;;;;;;5.30;100.00;100438.00;5050978;28;19935;-55
2021/11/30 06:08:32;;;;;;;;;;;;;;;5.32;100.00;100433.56;5049975;28;19925;-55
2021/11/30 06:10:58;;;;;;;;;;;;;;;5.34;100.00;100426.47;5065335;28;20271;-55
2021/11/30 06:13:25;;;;;;;;;;;;;;;5.37;100.00;100435.91;5050521;28;19932;-55
2021/11/30 06:15:52;;;;;;;;;;;;;;;5.38;100.00;100432.41;5048783;28;20307;-56
2021/11/30 06:18:18;;;;;;;;;;;;;;;5.42;100.00;100431.31;5049583;28;19929;-56
2021/11/30 06:20:48;;;;;;;;;;;;;;;5.45;100.00;100430.34;5049956;28;20280;-57
2021/11/30 06:23:14;;;;;;;;;;;;;;;5.48;100.00;100423.22;5050541;28;20359;-52
2021/11/30 06:25:41;;;;;;;;;;;;;;;5.48;100.00;100418.00;5048213;28;20376;-49
2021/11/30 06:28:07;;;;;;;;;;;;;;;5.53;100.00;100415.97;5048611;28;19924;-57
2021/11/30 06:30:34;;;;;;;;;;;;;;;5.59;100.00;100414.84;5080920;28;19925;-55
2021/11/30 06:33:01;;;;;;;;;;;;;;;5.67;100.00;100417.03;5051570;28;20321;-56
2021/11/30 06:35:27;;;;;;;;;;;;;;;5.67;100.00;100410.06;5052956;28;19979;-55
2021/11/30 06:37:56;;;;;;;;;;;;;;;5.71;100.00;100406.38;5049143;28;20385;-55
2021/11/30 06:40:23;;;;;;;;;;;;;;;5.71;100.00;100410.72;5082045;28;20509;-53
2021/11/30 06:42:49;;;;;;;;;;;;;;;5.76;100.00;100416.56;5050382;28;19932;-55
2021/11/30 06:45:16;;;;;;;;;;;;;;;5.77;100.00;100407.81;5033231;28;19935;-53
2021/11/30 06:47:43;;;;;;;;;;;;;;;5.86;100.00;100411.69;5048705;28;20272;-54
2021/11/30 06:50:10;;;;;;;;;;;;;;;5.83;100.00;100412.69;5049934;28;19928;-55
2021/11/30 06:52:38;;;;;;;;;;;;;;;5.91;100.00;100405.31;5049216;28;20272;-56
2021/11/30 06:55:06;;;;;;;;;;;;;;;5.91;100.00;100407.91;5083788;28;20402;-48
2021/11/30 06:57:32;;;;;;;;;;;;;;;5.90;100.00;100406.25;5052023;28;19928;-51
2021/11/30 07:00:01;;;;;;;;;;;;;;;5.97;100.00;100400.69;5049144;28;19925;-51
2021/11/30 07:02:28;;;;;;;;;;;;;;;6.02;100.00;100407.38;5047349;28;20466;-49
2021/11/30 07:04:56;;;;;;;;;;;;;;;6.07;100.00;100415.81;5049611;28;19929;-49
2021/11/30 07:07:45;;;;;;;;;;;;;;;6.15;100.00;100415.44;5050814;28;20415;-52
2021/11/30 07:10:46;;;;;;;;;;;;;;;6.17;100.00;100421.41;5049378;28;19994;-52
2021/11/30 07:15:45;;;;;;;;;;;;;;;6.33;100.00;100425.81;5067574;28;19925;-56
2021/11/30 07:18:12;;;;;;;;;;;;;;;6.39;100.00;100425.47;5051294;28;19925;-55
2021/11/30 07:20:39;;;;;;;;;;;;;;;6.48;100.00;100435.44;5049838;28;20288;-55
2021/11/30 07:23:05;;;;;;;;;;;;;;;6.55;100.00;100438.56;5081294;28;19925;-51
2021/11/30 07:25:32;;;;;;;;;;;;;;;6.55;100.00;100442.00;5049132;28;19956;-53
2021/11/30 07:27:59;;;;;;;;;;;;;;;6.63;100.00;100448.59;5048409;28;20382;-50
2021/11/30 07:30:26;;;;;;;;;;;;;;;6.68;100.00;100447.41;5048887;28;19931;-49
2021/11/30 07:32:52;;;;;;;;;;;;;;;6.69;100.00;100445.63;5049778;28;19971;-51
2021/11/30 07:35:21;;;;;;;;;;;;;;;6.83;100.00;100444.84;5050599;28;19924;-52
2021/11/30 07:37:50;;;;;;;;;;;;;;;6.82;100.00;100446.63;5048625;28;19970;-51
2021/11/30 07:40:17;;;;;;;;;;;;;;;6.87;100.00;100441.13;5084373;28;20407;-56
2021/11/30 07:42:43;;;;;;;;;;;;;;;6.88;100.00;100442.84;5052639;28;19975;-56
2021/11/30 07:45:10;;;;;;;;;;;;;;;6.91;100.00;100451.34;5052748;28;20416;-57
2021/11/30 07:47:37;;;;;;;;;;;;;;;6.93;100.00;100449.47;5054451;28;19932;-56
2021/11/30 07:50:05;;;;;;;;;;;;;;;6.97;100.00;100449.31;5055642;28;19936;-56
2021/11/30 07:52:36;;;;;;;;;;;;;;;6.96;100.00;100439.78;5053490;28;20020;-57
2021/11/30 07:55:05;;;;;;;;;;;;;;;7.02;100.00;100444.66;5035116;28;19925;-57
2021/11/30 07:57:32;;;;;;;;;;;;;;;7.02;100.00;100442.91;5086715;28;20395;-49
2021/11/30 07:59:58;;;;;;;;;;;;;;;7.08;100.00;100439.94;5052990;28;19925;-49
2021/11/30 08:02:25;;;;;;;;;;;;;;;7.10;100.00;100442.44;5053525;28;19931;-52
2021/11/30 08:04:52;;;;;;;;;;;;;;;7.11;100.00;100446.75;5053660;28;19931;-48
2021/11/30 08:07:19;;;;;;;;;;;;;;;7.14;100.00;100445.75;5052090;28;20399;-52
2021/11/30 08:09:48;;;;;;;;;;;;;;;7.16;100.00;100447.34;5084243;28;20391;-48
2021/11/30 08:12:15;;;;;;;;;;;;;;;7.16;100.00;100449.97;5052071;28;19994;-50
2021/11/30 08:14:42;;;;;;;;;;;;;;;7.21;100.00;100449.69;5051381;28;19924;-53
2021/11/30 08:17:17;;;;;;;;;;;;;;;7.25;100.00;100441.59;5054998;28;20394;-49
2021/11/30 08:19:44;;;;;;;;;;;;;;;7.23;100.00;100448.69;5052433;28;19928;-49
2021/11/30 08:22:11;;;;;;;;;;;;;;;7.27;100.00;100439.72;5051508;28;19925;-50
2021/11/30 08:24:38;;;;;;;;;;;;;;;7.28;100.00;100446.66;5051992;28;19925;-52
2021/11/30 08:27:05;;;;;;;;;;;;;;;7.31;100.00;100437.78;5053284;28;19928;-52
2021/11/30 08:29:32;;;;;;;;;;;;;;;7.31;100.00;100437.78;5084639;28;19929;-47
2021/11/30 08:31:59;;;;;;;;;;;;;;;7.32;100.00;100444.69;5051836;28;19925;-52
2021/11/30 08:34:26;;;;;;;;;;;;;;;7.32;100.00;100443.84;5085704;28;19925;-49
2021/11/30 08:36:53;;;;;;;;;;;;;;;7.36;100.00;100442.72;5083598;28;19991;-48
2021/11/30 08:39:19;;;;;;;;;;;;;;;7.43;100.00;100446.66;5051724;28;19924;-49
2021/11/30 08:41:46;;;;;;;;;;;;;;;7.40;100.00;100444.25;5051640;28;19926;-50
2021/11/30 08:44:25;;;;;;;;;;;;;;;7.43;100.00;100444.06;5050990;28;19924;-50
2021/11/30 08:46:52;;;;;;;;;;;;;;;7.47;100.00;100447.34;5051641;28;20433;-50
2021/11/30 08:49:19;;;;;;;;;;;;;;;7.47;100.00;100442.94;5085316;28;19932;-49
2021/11/30 08:51:53;;;;;;;;;;;;;;;7.50;100.00;100452.38;5084158;28;19924;-51
2021/11/30 08:54:20;;;;;;;;;;;;;;;7.52;100.00;100453.16;5051860;28;19925;-52
2021/11/30 08:56:46;;;;;;;;;;;;;;;7.51;100.00;100452.31;5050003;28;19979;-50
2021/11/30 08:59:13;;;;;;;;;;;;;;;7.56;100.00;100446.81;5050977;28;20015;-52
2021/11/30 09:01:40;;;;;;;;;;;;;;;7.58;100.00;100444.94;5066298;28;20268;-51
2021/11/30 09:04:07;;;;;;;;;;;;;;;7.57;100.00;100449.34;5083107;28;20437;-52
2021/11/30 09:06:34;;;;;;;;;;;;;;;7.60;100.00;100437.84;5051305;28;19929;-53
2021/11/30 09:09:03;;;;;;;;;;;;;;;7.61;100.00;100439.53;5051355;28;19925;-50
2021/11/30 09:11:39;;;;;;;;;;;;;;;7.60;100.00;100428.22;5053298;28;20015;-51
2021/11/30 09:14:06;;;;;;;;;;;;;;;7.69;100.00;100432.06;5051229;28;19929;-49
2021/11/30 09:16:33;;;;;;;;;;;;;;;7.66;100.00;100429.63;5050595;28;19955;-52
2021/11/30 09:19:00;;;;;;;;;;;;;;;7.68;100.00;100443.47;5053995;28;19924;-49
2021/11/30 09:21:27;;;;;;;;;;;;;;;7.72;100.00;100446.75;5084618;28;19975;-51
2021/11/30 09:23:55;;;;;;;;;;;;;;;7.77;100.00;100447.31;5051347;28;20330;-48
2021/11/30 09:26:21;;;;;;;;;;;;;;;7.75;100.00;100449.19;5083171;28;20340;-50
2021/11/30 09:28:48;;;;;;;;;;;;;;;7.79;100.00;100454.13;5085162;28;19960;-48
2021/11/30 09:31:15;;;;;;;;;;;;;;;7.87;100.00;100455.47;5052550;28;19935;-47
2021/11/30 09:33:45;;;;;;;;;;;;;;;7.87;100.00;100458.91;5052547;28;19924;-52
2021/11/30 09:36:13;;;;;;;;;;;;;;;7.85;100.00;100457.31;5050966;28;19975;-53
2021/11/30 09:38:39;;;;;;;;;;;;;;;7.89;100.00;100462.28;5050342;28;19924;-51
2021/11/30 09:41:06;;;;;;;;;;;;;;;7.95;100.00;100469.78;5051549;28;20295;-50
2021/11/30 09:43:48;;;;;;;;;;;;;;;7.92;100.00;100476.97;5053405;28;20304;-51
2021/11/30 09:46:14;;;;;;;;;;;;;;;7.97;100.00;100468.84;5053585;28;19929;-47
2021/11/30 09:48:41;;;;;;;;;;;;;;;7.99;100.00;100467.81;5052060;28;19933;-51
2021/11/30 09:51:08;;;;;;;;;;;;;;;7.97;100.00;100467.06;5053276;28;19978;-51
2021/11/30 09:53:35;;;;;;;;;;;;;;;8.01;100.00;100467.72;5050621;28;19929;-55
2021/11/30 09:56:04;;;;;;;;;;;;;;;8.00;100.00;100468.66;5050520;28;20272;-50
2021/11/30 09:58:31;;;;;;;;;;;;;;;8.03;100.00;100477.19;5052448;28;19928;-57
2021/11/30 10:00:58;;;;;;;;;;;;;;;8.03;100.00;100477.19;5048319;28;19936;-51
2021/11/30 10:03:25;;;;;;;;;;;;;;;8.03;100.00;100499.88;5051198;28;19928;-48
2021/11/30 10:05:54;;;;;;;;;;;;;;;8.01;100.00;100496.53;5053488;28;19975;-58
2021/11/30 10:08:24;;;;;;;;;;;;;;;8.13;100.00;100509.72;5052572;28;20387;-57
2021/11/30 10:11:07;;;;;;;;;;;;;;;8.08;100.00;100508.31;5065260;28;19928;-56
2021/11/30 10:13:34;;;;;;;;;;;;;;;8.10;100.00;100507.28;5049732;28;20342;-56
2021/11/30 10:16:02;;;;;;;;;;;;;;;8.06;100.00;100520.69;5050681;28;19924;-57
2021/11/30 10:18:30;;;;;;;;;;;;;;;8.01;100.00;100507.84;5049866;28;19971;-55
2021/11/30 10:21:06;;;;;;;;;;;;;;;7.99;100.00;100512.34;5048676;28;19959;-48
2021/11/30 10:23:46;;;;;;;;;;;;;;;8.01;100.00;100522.72;5051986;28;20344;-55
2021/11/30 10:26:13;;;;;;;;;;;;;;;7.94;100.00;100517.00;5050152;28;19925;-56
2021/11/30 10:28:39;;;;;;;;;;;;;;;7.85;100.00;100514.94;5048701;28;19925;-56
2021/11/30 10:31:09;;;;;;;;;;;;;;;7.81;100.00;100516.88;5047458;28;19971;-54
2021/11/30 10:33:36;;;;;;;;;;;;;;;7.79;100.00;100516.97;5049215;28;19929;-55
2021/11/30 10:36:03;;;;;;;;;;;;;;;7.82;100.00;100528.19;5082784;28;20413;-55
2021/11/30 10:38:37;;;;;;;;;;;;;;;7.80;100.00;100528.28;5051440;28;20067;-52
2021/11/30 10:41:33;;;;;;;;;;;;;;;7.73;100.00;100529.56;5048882;28;19925;-55
2021/11/30 10:44:03;;;;;;;;;;;;;;;7.69;100.00;100528.91;5048458;28;20019;-55
2021/11/30 10:46:30;;;;;;;;;;;;;;;7.63;100.00;100533.66;5049598;28;19928;-56
2021/11/30 10:48:57;;;;;;;;;;;;;;;7.59;100.00;100533.00;5048052;28;19932;-53
2021/11/30 10:51:24;;;;;;;;;;;;;;;7.51;100.00;100537.81;5049398;28;19939;-55
2021/11/30 10:53:55;;;;;;;;;;;;;;;7.49;100.00;100542.31;5049608;28;19925;-55
2021/11/30 10:56:22;;;;;;;;;;;;;;;7.53;100.00;100538.59;5049765;28;20598;-52
2021/11/30 10:58:51;;;;;;;;;;;;;;;7.50;100.00;100541.34;5048772;28;19952;-55
2021/11/30 11:01:19;;;;;;;;;;;;;;;7.44;100.00;100539.94;5049188;28;19997;-55
2021/11/30 11:04:06;;;;;;;;;;;;;;;7.42;100.00;100541.81;5080534;28;20015;-56
2021/11/30 11:06:33;;;;;;;;;;;;;;;7.44;100.00;100532.09;5083761;28;19952;-54
2021/11/30 11:09:03;;;;;;;;;;;;;;;7.44;100.00;100532.09;5051989;28;19925;-55
2021/11/30 11:11:33;;;;;;;;;;;;;;;7.48;100.00;100525.75;5051482;28;19928;-55
2021/11/30 11:14:01;;;;;;;;;;;;;;;7.44;100.00;100534.72;5050281;28;19974;-54
2021/11/30 11:16:35;;;;;;;;;;;;;;;7.43;100.00;100533.00;5053438;28;19928;-50
2021/11/30 11:19:04;;;;;;;;;;;;;;;7.42;100.00;100516.47;5052830;28;19926;-56
2021/11/30 11:21:31;;;;;;;;;;;;;;;7.45;100.00;100518.09;5053205;28;19925;-56
2021/11/30 11:24:05;;;;;;;;;;;;;;;7.47;100.00;100516.22;5054358;28;19987;-56
2021/11/30 11:26:41;;;;;;;;;;;;;;;7.49;100.00;100521.38;5053528;28;19924;-56
2021/11/30 11:29:21;;;;;;;;;;;;;;;7.49;100.00;100521.38;5052524;28;20386;-56
2021/11/30 11:31:50;;;;;;;;;;;;;;;7.53;100.00;100528.13;5052413;28;19932;-56
2021/11/30 11:34:17;;;;;;;;;;;;;;;7.56;100.00;100523.53;5052452;28;19979;-56
2021/11/30 11:36:45;;;;;;;;;;;;;;;7.52;100.00;100523.81;5084650;28;19925;-51
2021/11/30 11:39:14;;;;;;;;;;;;;;;7.56;100.00;100522.72;5052561;28;19932;-51
2021/11/30 11:41:41;;;;;;;;;;;;;;;7.53;100.00;100528.13;5053001;28;20444;-50
2021/11/30 11:44:08;;;;;;;;;;;;;;;7.55;100.00;100528.88;5086893;28;20367;-50
2021/11/30 11:46:35;;;;;;;;;;;;;;;7.57;100.00;100534.88;5052240;28;20381;-55
2021/11/30 11:49:03;;;;;;;;;;;;;;;7.56;100.00;100536.63;5067978;28;19925;-51
2021/11/30 11:51:32;;;;;;;;;;;;;;;7.57;100.00;100532.25;5084829;28;19932;-51
2021/11/30 11:53:59;;;;;;;;;;;;;;;7.59;100.00;100533.84;5052685;28;19963;-52
2021/11/30 11:56:29;;;;;;;;;;;;;;;7.58;100.00;100523.44;5085039;28;19940;-55
2021/11/30 11:59:11;;;;;;;;;;;;;;;7.56;100.00;100525.31;5052440;28;19932;-55
2021/11/30 12:01:38;;;;;;;;;;;;;;;7.57;100.00;100520.00;5052338;28;20482;-55
2021/11/30 12:04:15;;;;;;;;;;;;;;;7.59;100.00;100520.75;5050741;28;20801;-56
2021/11/30 12:06:50;;;;;;;;;;;;;;;7.56;100.00;100518.31;5052362;28;19928;-50
2021/11/30 12:09:18;;;;;;;;;;;;;;;7.60;100.00;100514.56;5052709;28;19929;-49
2021/11/30 12:11:44;;;;;;;;;;;;;;;7.59;100.00;100510.28;5052445;28;19940;-50
2021/11/30 12:14:13;;;;;;;;;;;;;;;7.67;100.00;100511.63;5055521;28;19932;-56
2021/11/30 12:16:57;;;;;;;;;;;;;;;7.62;100.00;100504.00;5055095;28;19929;-55
2021/11/30 12:19:25;;;;;;;;;;;;;;;7.58;100.00;100508.59;5053232;28;19931;-53
2021/11/30 12:21:52;;;;;;;;;;;;;;;7.63;100.00;100510.09;5051900;28;20330;-51
2021/11/30 12:24:35;;;;;;;;;;;;;;;7.66;100.00;100510.75;5051983;28;19925;-49
2021/11/30 12:27:22;;;;;;;;;;;;;;;7.68;100.00;100513.31;5067322;28;19931;-50
2021/11/30 12:29:49;;;;;;;;;;;;;;;7.64;100.00;100517.03;5051161;28;19932;-57
2021/11/30 12:32:24;;;;;;;;;;;;;;;7.64;100.00;100515.25;5054573;28;20356;-51
2021/11/30 12:34:55;;;;;;;;;;;;;;;7.69;100.00;100507.13;5054942;28;19925;-49
2021/11/30 12:37:24;;;;;;;;;;;;;;;7.72;100.00;100502.56;5053802;28;20366;-51
2021/11/30 12:39:59;;;;;;;;;;;;;;;7.73;100.00;100503.38;5052492;28;19932;-49
2021/11/30 12:42:26;;;;;;;;;;;;;;;7.68;100.00;100506.28;5051501;28;19987;-57
2021/11/30 12:44:54;;;;;;;;;;;;;;;7.66;100.00;100496.84;5083735;28;20402;-47
2021/11/30 12:47:25;;;;;;;;;;;;;;;7.65;100.00;100503.84;5050807;28;19959;-48
2021/11/30 12:49:52;;;;;;;;;;;;;;;7.66;100.00;100499.44;5051990;28;19925;-51
2021/11/30 12:52:20;;;;;;;;;;;;;;;7.66;100.00;100502.06;5083717;28;20318;-49
2021/11/30 12:54:48;;;;;;;;;;;;;;;7.71;100.00;100494.81;5051623;28;20396;-49